Aérodrome :
LOGIN :

S'inscrire | Disclaimer

   EN    FR    IT 

 










Légende :    VFR   VFR Marginal   IFR   IFR Intensif   IFR Très Intensif
Visi : 
Plafond : 
>= 8 km
>= 3000ft
5 à 8 km
1000 à 3000 ft
1500m à 5 km
500 à 1000 ft
800 à 1500m
200 à 500 ft
< 800m
< 200 ft
Symboles :   Orages  Brouillard  Fortes neiges  Fortes précipitations  Vent > 20 kt
SIGMETs :   Divers  Orages  Givrage  Turbulence  Onde Orograph.  Cendres Volcan.






- Altitude de l'aérodrome : 74 ft
- Code IATA : EIN


EHEH - Eindhoven

DERNIER METAR :
  • 240525Z AUTO 19008KT 9999 SCT019 OVC022 12/11 Q1011 WHT TEMPO BKN016 OVC020

METARs EXPIRÉS :
  • 240455Z AUTO 20009KT 9999 OVC016 13/11 Q1011 WHT TEMPO BKN016 OVC020
  • 240425Z AUTO 20008KT 170V230 9999 BKN016 OVC020 13/11 Q1011 WHT TEMPO BKN016 OVC020
  • 240414Z AUTO 20008KT 9999 BKN017 OVC020 13/11 Q1011 WHT
  • 240355Z AUTO 21008KT 9999 OVC017 13/11 Q1011 WHT
  • 240345Z AUTO 21008KT 9999 BKN017 BKN021 OVC027 13/11 Q1011 WHT
  • 240329Z AUTO 21008KT 9999 FEW016 SCT023 BKN026 12/11 Q1011 WHT
  • 240317Z AUTO 21008KT 9999 FEW021 BKN025 BKN033 12/11 Q1011 BLU
  • 240255Z AUTO 20009KT 9999 SCT017 BKN021 OVC025 13/11 Q1011 WHT

TAF TAF EHEH
Valide du 24 à 00h jusqu'au 25 à 06h UTC


232351Z 2400/2506 20008KT 9999 FEW025 BKN040
PROB30
TEMPO 2318/2410 24015G25KT SCT015 SCT018CB BKN025
TEMPO 2404/2410 SCT008 BKN012
BECMG 2407/2410 20013KT
BECMG 2417/2419 19016G26KT
PROB40
TEMPO 2504/2506 SCT012 BKN015CB BKN030



MET'MAP, la Météo Aéronautique d'un coup d'oeil ! - Copyright ORBIFLY Décembre 2007 - Disclaimer

ORBIFLY MET'MAP TEAM :

Programmation & Développement : Alexandra Zaïnal
Sur une idée originale de : Baudouin d'Aumeries
Assistance à la programmation : Marc-Olivier Méhu
Soutien technique & logistique : Manuel Goepfert

Contact : metmap@orbifly.com




SOURCES & CREDITS :

   NOAA